sensor_id;sensor_type;location;lat;lon;timestamp;P1;durP1;ratioP1;P2;durP2;ratioP2
4122;SDS011;2075;51.062;6.920;2024-02-28T00:00:24;69.83;;;25.70;;
4122;SDS011;2075;51.062;6.920;2024-02-28T00:19:34;80.57;;;28.40;;
4122;SDS011;2075;51.062;6.920;2024-02-28T00:22:20;67.00;;;27.53;;
4122;SDS011;2075;51.062;6.920;2024-02-28T00:25:07;75.00;;;27.37;;
4122;SDS011;2075;51.062;6.920;2024-02-28T00:27:55;73.47;;;27.10;;
4122;SDS011;2075;51.062;6.920;2024-02-28T00:30:41;73.60;;;26.47;;
4122;SDS011;2075;51.062;6.920;2024-02-28T00:33:27;76.23;;;28.73;;
4122;SDS011;2075;51.062;6.920;2024-02-28T00:36:15;74.37;;;26.37;;
4122;SDS011;2075;51.062;6.920;2024-02-28T00:39:03;67.77;;;27.27;;
4122;SDS011;2075;51.062;6.920;2024-02-28T00:41:48;74.33;;;26.67;;
4122;SDS011;2075;51.062;6.920;2024-02-28T00:44:34;75.83;;;26.00;;
4122;SDS011;2075;51.062;6.920;2024-02-28T00:47:19;72.00;;;28.60;;
4122;SDS011;2075;51.062;6.920;2024-02-28T00:50:07;63.57;;;26.07;;
4122;SDS011;2075;51.062;6.920;2024-02-28T00:52:54;74.57;;;27.57;;
4122;SDS011;2075;51.062;6.920;2024-02-28T00:55:41;70.47;;;26.50;;
4122;SDS011;2075;51.062;6.920;2024-02-28T00:58:27;67.63;;;26.00;;
4122;SDS011;2075;51.062;6.920;2024-02-28T01:01:13;61.93;;;26.63;;
4122;SDS011;2075;51.062;6.920;2024-02-28T01:03:59;69.93;;;27.00;;
4122;SDS011;2075;51.062;6.920;2024-02-28T01:06:44;67.80;;;26.17;;
4122;SDS011;2075;51.062;6.920;2024-02-28T01:09:32;70.53;;;26.93;;
4122;SDS011;2075;51.062;6.920;2024-02-28T01:12:17;72.23;;;26.00;;
4122;SDS011;2075;51.062;6.920;2024-02-28T01:15:08;77.37;;;27.57;;
4122;SDS011;2075;51.062;6.920;2024-02-28T01:17:54;68.20;;;24.67;;
4122;SDS011;2075;51.062;6.920;2024-02-28T01:20:41;69.30;;;27.30;;
4122;SDS011;2075;51.062;6.920;2024-02-28T01:23:28;73.07;;;27.10;;
4122;SDS011;2075;51.062;6.920;2024-02-28T01:26:15;65.70;;;26.37;;
4122;SDS011;2075;51.062;6.920;2024-02-28T01:29:01;70.40;;;27.07;;
4122;SDS011;2075;51.062;6.920;2024-02-28T01:31:46;66.23;;;26.83;;
4122;SDS011;2075;51.062;6.920;2024-02-28T01:34:32;76.10;;;26.87;;
4122;SDS011;2075;51.062;6.920;2024-02-28T01:37:17;70.10;;;28.53;;
4122;SDS011;2075;51.062;6.920;2024-02-28T01:40:03;70.37;;;27.70;;
4122;SDS011;2075;51.062;6.920;2024-02-28T01:42:50;63.20;;;26.47;;
4122;SDS011;2075;51.062;6.920;2024-02-28T01:45:36;66.10;;;25.73;;
4122;SDS011;2075;51.062;6.920;2024-02-28T01:48:21;65.20;;;26.87;;
4122;SDS011;2075;51.062;6.920;2024-02-28T01:51:14;67.00;;;25.37;;
4122;SDS011;2075;51.062;6.920;2024-02-28T01:54:02;69.77;;;26.30;;
4122;SDS011;2075;51.062;6.920;2024-02-28T01:56:48;64.67;;;26.13;;
4122;SDS011;2075;51.062;6.920;2024-02-28T01:59:35;67.00;;;24.90;;
4122;SDS011;2075;51.062;6.920;2024-02-28T02:02:24;69.57;;;25.47;;
4122;SDS011;2075;51.062;6.920;2024-02-28T02:05:10;64.07;;;26.00;;
4122;SDS011;2075;51.062;6.920;2024-02-28T02:07:57;64.70;;;27.07;;
4122;SDS011;2075;51.062;6.920;2024-02-28T02:10:44;66.20;;;27.63;;
4122;SDS011;2075;51.062;6.920;2024-02-28T02:13:29;63.73;;;26.80;;
4122;SDS011;2075;51.062;6.920;2024-02-28T02:16:16;71.60;;;26.67;;
4122;SDS011;2075;51.062;6.920;2024-02-28T02:19:03;68.17;;;27.10;;
4122;SDS011;2075;51.062;6.920;2024-02-28T02:21:53;56.97;;;25.13;;
4122;SDS011;2075;51.062;6.920;2024-02-28T02:24:44;62.17;;;25.83;;
4122;SDS011;2075;51.062;6.920;2024-02-28T02:27:29;67.03;;;26.57;;
4122;SDS011;2075;51.062;6.920;2024-02-28T02:30:14;69.93;;;26.67;;
4122;SDS011;2075;51.062;6.920;2024-02-28T02:33:00;61.80;;;26.33;;
4122;SDS011;2075;51.062;6.920;2024-02-28T02:35:45;62.13;;;26.60;;
4122;SDS011;2075;51.062;6.920;2024-02-28T02:38:30;58.07;;;25.40;;
4122;SDS011;2075;51.062;6.920;2024-02-28T02:41:17;55.13;;;25.37;;
4122;SDS011;2075;51.062;6.920;2024-02-28T02:44:03;61.30;;;27.00;;
4122;SDS011;2075;51.062;6.920;2024-02-28T02:46:48;68.00;;;26.20;;
4122;SDS011;2075;51.062;6.920;2024-02-28T02:49:34;66.20;;;26.37;;
4122;SDS011;2075;51.062;6.920;2024-02-28T02:52:19;64.13;;;27.80;;
4122;SDS011;2075;51.062;6.920;2024-02-28T02:55:05;63.80;;;26.30;;
4122;SDS011;2075;51.062;6.920;2024-02-28T02:57:53;60.83;;;25.83;;
4122;SDS011;2075;51.062;6.920;2024-02-28T03:00:38;62.47;;;25.47;;
4122;SDS011;2075;51.062;6.920;2024-02-28T03:03:24;60.37;;;26.30;;
4122;SDS011;2075;51.062;6.920;2024-02-28T03:06:09;64.90;;;28.10;;
4122;SDS011;2075;51.062;6.920;2024-02-28T03:08:54;70.40;;;27.80;;
4122;SDS011;2075;51.062;6.920;2024-02-28T03:11:40;66.37;;;27.57;;
4122;SDS011;2075;51.062;6.920;2024-02-28T03:14:26;65.17;;;27.73;;
4122;SDS011;2075;51.062;6.920;2024-02-28T03:17:12;73.00;;;27.77;;
4122;SDS011;2075;51.062;6.920;2024-02-28T03:19:59;70.90;;;28.67;;
4122;SDS011;2075;51.062;6.920;2024-02-28T03:22:44;61.27;;;26.60;;
4122;SDS011;2075;51.062;6.920;2024-02-28T03:25:30;69.07;;;27.20;;
4122;SDS011;2075;51.062;6.920;2024-02-28T03:28:15;65.60;;;27.90;;
4122;SDS011;2075;51.062;6.920;2024-02-28T03:31:02;78.60;;;31.87;;
4122;SDS011;2075;51.062;6.920;2024-02-28T03:33:48;87.63;;;32.73;;
4122;SDS011;2075;51.062;6.920;2024-02-28T03:36:34;90.83;;;35.07;;
4122;SDS011;2075;51.062;6.920;2024-02-28T03:39:20;91.37;;;34.60;;
4122;SDS011;2075;51.062;6.920;2024-02-28T03:42:06;87.53;;;33.90;;
4122;SDS011;2075;51.062;6.920;2024-02-28T03:44:51;97.90;;;37.97;;
4122;SDS011;2075;51.062;6.920;2024-02-28T03:47:38;105.20;;;38.47;;
4122;SDS011;2075;51.062;6.920;2024-02-28T03:50:24;118.27;;;37.77;;
4122;SDS011;2075;51.062;6.920;2024-02-28T03:53:09;101.43;;;39.17;;
4122;SDS011;2075;51.062;6.920;2024-02-28T03:55:54;106.97;;;39.40;;
4122;SDS011;2075;51.062;6.920;2024-02-28T03:58:40;107.03;;;40.27;;
4122;SDS011;2075;51.062;6.920;2024-02-28T04:01:25;105.03;;;39.07;;
4122;SDS011;2075;51.062;6.920;2024-02-28T04:04:12;104.07;;;39.40;;
4122;SDS011;2075;51.062;6.920;2024-02-28T04:06:57;99.57;;;38.30;;
4122;SDS011;2075;51.062;6.920;2024-02-28T04:09:43;96.80;;;37.87;;
4122;SDS011;2075;51.062;6.920;2024-02-28T04:12:28;106.47;;;39.43;;
4122;SDS011;2075;51.062;6.920;2024-02-28T04:15:13;105.13;;;37.90;;
4122;SDS011;2075;51.062;6.920;2024-02-28T04:17:59;99.53;;;36.23;;
4122;SDS011;2075;51.062;6.920;2024-02-28T04:20:46;111.27;;;39.07;;
4122;SDS011;2075;51.062;6.920;2024-02-28T04:23:31;96.50;;;37.60;;
4122;SDS011;2075;51.062;6.920;2024-02-28T04:26:17;98.43;;;38.13;;
4122;SDS011;2075;51.062;6.920;2024-02-28T04:29:02;99.30;;;37.80;;
4122;SDS011;2075;51.062;6.920;2024-02-28T04:31:49;105.80;;;37.77;;
4122;SDS011;2075;51.062;6.920;2024-02-28T04:34:35;103.23;;;39.00;;
4122;SDS011;2075;51.062;6.920;2024-02-28T04:37:23;94.67;;;37.10;;
4122;SDS011;2075;51.062;6.920;2024-02-28T04:40:08;93.70;;;37.40;;
4122;SDS011;2075;51.062;6.920;2024-02-28T04:42:55;100.20;;;36.60;;
4122;SDS011;2075;51.062;6.920;2024-02-28T04:45:40;96.30;;;36.23;;
4122;SDS011;2075;51.062;6.920;2024-02-28T04:48:26;102.27;;;39.63;;
4122;SDS011;2075;51.062;6.920;2024-02-28T04:51:11;97.60;;;37.40;;
4122;SDS011;2075;51.062;6.920;2024-02-28T04:54:01;113.20;;;38.93;;
4122;SDS011;2075;51.062;6.920;2024-02-28T04:56:47;95.73;;;38.33;;
4122;SDS011;2075;51.062;6.920;2024-02-28T04:59:32;101.37;;;36.03;;
4122;SDS011;2075;51.062;6.920;2024-02-28T05:02:23;109.70;;;38.27;;
4122;SDS011;2075;51.062;6.920;2024-02-28T05:05:19;101.67;;;38.60;;
4122;SDS011;2075;51.062;6.920;2024-02-28T05:08:05;103.03;;;37.53;;
4122;SDS011;2075;51.062;6.920;2024-02-28T05:10:52;100.17;;;38.30;;
4122;SDS011;2075;51.062;6.920;2024-02-28T05:13:38;105.57;;;37.13;;
4122;SDS011;2075;51.062;6.920;2024-02-28T05:16:23;99.30;;;36.13;;
4122;SDS011;2075;51.062;6.920;2024-02-28T05:19:08;108.77;;;37.90;;
4122;SDS011;2075;51.062;6.920;2024-02-28T05:21:54;91.37;;;35.10;;
4122;SDS011;2075;51.062;6.920;2024-02-28T05:24:39;99.17;;;36.47;;
4122;SDS011;2075;51.062;6.920;2024-02-28T05:27:28;84.37;;;33.47;;
4122;SDS011;2075;51.062;6.920;2024-02-28T05:30:14;92.27;;;34.73;;
4122;SDS011;2075;51.062;6.920;2024-02-28T05:32:59;91.27;;;34.80;;
4122;SDS011;2075;51.062;6.920;2024-02-28T05:35:44;97.83;;;35.37;;
4122;SDS011;2075;51.062;6.920;2024-02-28T05:38:30;96.00;;;35.10;;
4122;SDS011;2075;51.062;6.920;2024-02-28T05:41:16;80.97;;;32.27;;
4122;SDS011;2075;51.062;6.920;2024-02-28T05:44:03;107.53;;;37.17;;
4122;SDS011;2075;51.062;6.920;2024-02-28T05:46:48;98.10;;;36.17;;
4122;SDS011;2075;51.062;6.920;2024-02-28T05:49:33;100.87;;;38.07;;
4122;SDS011;2075;51.062;6.920;2024-02-28T05:52:19;89.00;;;35.73;;
4122;SDS011;2075;51.062;6.920;2024-02-28T05:55:05;88.80;;;34.77;;
4122;SDS011;2075;51.062;6.920;2024-02-28T05:57:50;87.97;;;33.17;;
4122;SDS011;2075;51.062;6.920;2024-02-28T06:00:37;81.90;;;32.47;;
4122;SDS011;2075;51.062;6.920;2024-02-28T06:03:22;96.17;;;33.50;;
4122;SDS011;2075;51.062;6.920;2024-02-28T06:06:08;91.70;;;35.50;;
4122;SDS011;2075;51.062;6.920;2024-02-28T06:08:53;91.53;;;32.70;;
4122;SDS011;2075;51.062;6.920;2024-02-28T06:11:40;86.17;;;32.17;;
4122;SDS011;2075;51.062;6.920;2024-02-28T06:14:25;78.97;;;30.07;;
4122;SDS011;2075;51.062;6.920;2024-02-28T06:17:12;103.03;;;34.43;;
4122;SDS011;2075;51.062;6.920;2024-02-28T06:19:58;95.33;;;33.30;;
4122;SDS011;2075;51.062;6.920;2024-02-28T06:22:43;95.13;;;32.90;;
4122;SDS011;2075;51.062;6.920;2024-02-28T06:25:30;94.83;;;35.80;;
4122;SDS011;2075;51.062;6.920;2024-02-28T06:28:18;87.30;;;30.53;;
4122;SDS011;2075;51.062;6.920;2024-02-28T06:31:03;94.60;;;34.50;;
4122;SDS011;2075;51.062;6.920;2024-02-28T06:33:50;95.63;;;32.20;;
4122;SDS011;2075;51.062;6.920;2024-02-28T06:36:36;97.20;;;33.53;;
4122;SDS011;2075;51.062;6.920;2024-02-28T06:39:21;88.17;;;32.20;;
4122;SDS011;2075;51.062;6.920;2024-02-28T06:42:07;94.03;;;33.20;;
4122;SDS011;2075;51.062;6.920;2024-02-28T06:44:53;92.30;;;31.23;;
4122;SDS011;2075;51.062;6.920;2024-02-28T06:47:39;94.30;;;33.77;;
4122;SDS011;2075;51.062;6.920;2024-02-28T06:50:26;88.60;;;32.63;;
4122;SDS011;2075;51.062;6.920;2024-02-28T06:53:12;92.37;;;29.60;;
4122;SDS011;2075;51.062;6.920;2024-02-28T06:55:57;97.80;;;32.33;;
4122;SDS011;2075;51.062;6.920;2024-02-28T06:58:43;83.47;;;31.70;;
4122;SDS011;2075;51.062;6.920;2024-02-28T07:01:28;98.47;;;32.83;;
4122;SDS011;2075;51.062;6.920;2024-02-28T07:04:14;85.63;;;30.37;;
4122;SDS011;2075;51.062;6.920;2024-02-28T07:07:02;97.47;;;32.87;;
4122;SDS011;2075;51.062;6.920;2024-02-28T07:09:48;100.80;;;33.00;;
4122;SDS011;2075;51.062;6.920;2024-02-28T07:12:34;98.82;;;38.55;;
4122;SDS011;2075;51.062;6.920;2024-02-28T07:15:19;103.33;;;35.63;;
4122;SDS011;2075;51.062;6.920;2024-02-28T07:18:05;90.10;;;34.27;;
4122;SDS011;2075;51.062;6.920;2024-02-28T07:20:51;90.40;;;31.70;;
4122;SDS011;2075;51.062;6.920;2024-02-28T07:23:40;94.73;;;33.57;;
4122;SDS011;2075;51.062;6.920;2024-02-28T07:26:25;109.93;;;42.17;;
4122;SDS011;2075;51.062;6.920;2024-02-28T07:29:11;89.27;;;32.53;;
4122;SDS011;2075;51.062;6.920;2024-02-28T07:31:57;82.07;;;32.80;;
4122;SDS011;2075;51.062;6.920;2024-02-28T07:34:43;84.20;;;32.00;;
4122;SDS011;2075;51.062;6.920;2024-02-28T07:37:28;86.50;;;33.27;;
4122;SDS011;2075;51.062;6.920;2024-02-28T07:40:16;91.37;;;32.40;;
4122;SDS011;2075;51.062;6.920;2024-02-28T07:43:02;94.70;;;33.60;;
4122;SDS011;2075;51.062;6.920;2024-02-28T07:45:48;89.95;;;33.42;;
4122;SDS011;2075;51.062;6.920;2024-02-28T07:48:35;90.33;;;32.30;;
4122;SDS011;2075;51.062;6.920;2024-02-28T07:51:20;84.17;;;33.23;;
4122;SDS011;2075;51.062;6.920;2024-02-28T07:54:07;92.93;;;37.10;;
4122;SDS011;2075;51.062;6.920;2024-02-28T07:56:55;82.90;;;32.47;;
4122;SDS011;2075;51.062;6.920;2024-02-28T07:59:40;82.10;;;33.07;;
4122;SDS011;2075;51.062;6.920;2024-02-28T08:02:26;82.67;;;31.57;;
4122;SDS011;2075;51.062;6.920;2024-02-28T08:05:11;87.87;;;33.43;;
4122;SDS011;2075;51.062;6.920;2024-02-28T08:07:58;98.80;;;34.43;;
4122;SDS011;2075;51.062;6.920;2024-02-28T08:10:43;78.73;;;32.97;;
4122;SDS011;2075;51.062;6.920;2024-02-28T08:13:32;94.13;;;33.97;;
4122;SDS011;2075;51.062;6.920;2024-02-28T08:16:18;81.17;;;32.67;;
4122;SDS011;2075;51.062;6.920;2024-02-28T08:19:04;88.80;;;33.97;;
4122;SDS011;2075;51.062;6.920;2024-02-28T08:21:50;89.03;;;32.90;;
4122;SDS011;2075;51.062;6.920;2024-02-28T08:24:35;99.72;;;39.30;;
4122;SDS011;2075;51.062;6.920;2024-02-28T08:27:21;96.23;;;34.67;;
4122;SDS011;2075;51.062;6.920;2024-02-28T08:30:09;83.67;;;33.10;;
4122;SDS011;2075;51.062;6.920;2024-02-28T08:32:55;88.43;;;35.80;;
4122;SDS011;2075;51.062;6.920;2024-02-28T08:35:42;86.60;;;33.90;;
4122;SDS011;2075;51.062;6.920;2024-02-28T08:38:28;83.10;;;31.80;;
4122;SDS011;2075;51.062;6.920;2024-02-28T08:41:13;85.23;;;33.53;;
4122;SDS011;2075;51.062;6.920;2024-02-28T08:44:01;77.20;;;31.13;;
4122;SDS011;2075;51.062;6.920;2024-02-28T08:46:48;85.93;;;38.10;;
4122;SDS011;2075;51.062;6.920;2024-02-28T08:49:33;86.17;;;33.03;;
4122;SDS011;2075;51.062;6.920;2024-02-28T08:52:19;81.50;;;32.30;;
4122;SDS011;2075;51.062;6.920;2024-02-28T08:55:08;68.10;;;31.37;;
4122;SDS011;2075;51.062;6.920;2024-02-28T08:57:55;67.00;;;29.97;;
4122;SDS011;2075;51.062;6.920;2024-02-28T09:00:40;66.87;;;31.17;;
4122;SDS011;2075;51.062;6.920;2024-02-28T09:03:27;73.80;;;37.00;;
4122;SDS011;2075;51.062;6.920;2024-02-28T09:06:13;75.63;;;33.50;;
4122;SDS011;2075;51.062;6.920;2024-02-28T09:08:59;75.80;;;33.40;;
4122;SDS011;2075;51.062;6.920;2024-02-28T09:11:44;73.43;;;30.70;;
4122;SDS011;2075;51.062;6.920;2024-02-28T09:14:30;84.45;;;38.70;;
4122;SDS011;2075;51.062;6.920;2024-02-28T09:17:16;69.33;;;31.47;;
4122;SDS011;2075;51.062;6.920;2024-02-28T09:20:03;70.83;;;31.73;;
4122;SDS011;2075;51.062;6.920;2024-02-28T09:22:51;66.13;;;28.73;;
4122;SDS011;2075;51.062;6.920;2024-02-28T09:25:37;63.73;;;29.63;;
4122;SDS011;2075;51.062;6.920;2024-02-28T09:28:23;69.57;;;31.13;;
4122;SDS011;2075;51.062;6.920;2024-02-28T09:31:08;69.70;;;30.67;;
4122;SDS011;2075;51.062;6.920;2024-02-28T09:33:59;71.97;;;30.13;;
4122;SDS011;2075;51.062;6.920;2024-02-28T09:36:49;75.17;;;31.20;;
4122;SDS011;2075;51.062;6.920;2024-02-28T09:39:37;71.10;;;30.67;;
4122;SDS011;2075;51.062;6.920;2024-02-28T09:42:23;76.80;;;31.50;;
4122;SDS011;2075;51.062;6.920;2024-02-28T09:45:11;77.37;;;32.77;;
4122;SDS011;2075;51.062;6.920;2024-02-28T09:47:57;69.70;;;31.70;;
4122;SDS011;2075;51.062;6.920;2024-02-28T09:50:44;74.60;;;32.30;;
4122;SDS011;2075;51.062;6.920;2024-02-28T09:53:31;67.43;;;31.00;;
4122;SDS011;2075;51.062;6.920;2024-02-28T09:56:17;64.60;;;28.30;;
4122;SDS011;2075;51.062;6.920;2024-02-28T09:59:04;68.43;;;28.80;;
4122;SDS011;2075;51.062;6.920;2024-02-28T10:01:53;67.30;;;32.10;;
4122;SDS011;2075;51.062;6.920;2024-02-28T10:04:41;69.17;;;31.87;;
4122;SDS011;2075;51.062;6.920;2024-02-28T10:07:27;71.03;;;30.10;;
4122;SDS011;2075;51.062;6.920;2024-02-28T10:10:14;66.23;;;30.00;;
4122;SDS011;2075;51.062;6.920;2024-02-28T10:13:01;73.60;;;32.00;;
4122;SDS011;2075;51.062;6.920;2024-02-28T10:15:47;66.73;;;31.80;;
4122;SDS011;2075;51.062;6.920;2024-02-28T10:18:33;64.87;;;29.30;;
4122;SDS011;2075;51.062;6.920;2024-02-28T10:21:19;75.10;;;32.67;;
4122;SDS011;2075;51.062;6.920;2024-02-28T10:24:05;73.87;;;32.63;;
4122;SDS011;2075;51.062;6.920;2024-02-28T10:26:53;70.30;;;32.50;;
4122;SDS011;2075;51.062;6.920;2024-02-28T10:29:40;63.97;;;31.20;;
4122;SDS011;2075;51.062;6.920;2024-02-28T10:32:28;68.30;;;31.70;;
4122;SDS011;2075;51.062;6.920;2024-02-28T10:35:14;72.20;;;30.50;;
4122;SDS011;2075;51.062;6.920;2024-02-28T10:38:03;68.00;;;33.10;;
4122;SDS011;2075;51.062;6.920;2024-02-28T10:40:49;68.60;;;30.70;;
4122;SDS011;2075;51.062;6.920;2024-02-28T10:43:37;68.43;;;32.30;;
4122;SDS011;2075;51.062;6.920;2024-02-28T10:46:25;67.53;;;31.50;;
4122;SDS011;2075;51.062;6.920;2024-02-28T10:49:11;73.07;;;34.03;;
4122;SDS011;2075;51.062;6.920;2024-02-28T10:51:57;70.33;;;32.50;;
4122;SDS011;2075;51.062;6.920;2024-02-28T10:54:44;68.67;;;31.60;;
4122;SDS011;2075;51.062;6.920;2024-02-28T10:57:37;70.27;;;30.63;;
4122;SDS011;2075;51.062;6.920;2024-02-28T11:00:26;68.00;;;30.77;;
4122;SDS011;2075;51.062;6.920;2024-02-28T11:03:12;71.10;;;33.27;;
4122;SDS011;2075;51.062;6.920;2024-02-28T11:06:02;70.47;;;31.40;;
4122;SDS011;2075;51.062;6.920;2024-02-28T11:08:49;63.07;;;28.87;;
4122;SDS011;2075;51.062;6.920;2024-02-28T11:11:37;70.27;;;32.43;;
4122;SDS011;2075;51.062;6.920;2024-02-28T11:14:24;67.67;;;30.87;;
4122;SDS011;2075;51.062;6.920;2024-02-28T11:17:12;67.07;;;31.03;;
4122;SDS011;2075;51.062;6.920;2024-02-28T11:19:57;67.67;;;29.53;;
4122;SDS011;2075;51.062;6.920;2024-02-28T11:22:43;70.03;;;31.27;;
4122;SDS011;2075;51.062;6.920;2024-02-28T11:25:28;73.32;;;37.40;;
4122;SDS011;2075;51.062;6.920;2024-02-28T11:28:14;67.30;;;31.70;;
4122;SDS011;2075;51.062;6.920;2024-02-28T11:31:01;72.80;;;31.80;;
4122;SDS011;2075;51.062;6.920;2024-02-28T11:33:49;69.20;;;32.40;;
4122;SDS011;2075;51.062;6.920;2024-02-28T11:36:34;69.33;;;31.00;;
4122;SDS011;2075;51.062;6.920;2024-02-28T11:39:20;65.83;;;31.40;;
4122;SDS011;2075;51.062;6.920;2024-02-28T11:42:09;69.90;;;30.67;;
4122;SDS011;2075;51.062;6.920;2024-02-28T11:44:57;66.70;;;31.13;;
4122;SDS011;2075;51.062;6.920;2024-02-28T11:47:44;61.00;;;28.50;;
4122;SDS011;2075;51.062;6.920;2024-02-28T11:50:32;64.47;;;28.83;;
4122;SDS011;2075;51.062;6.920;2024-02-28T11:53:20;68.97;;;29.77;;
4122;SDS011;2075;51.062;6.920;2024-02-28T11:56:05;61.27;;;28.23;;
4122;SDS011;2075;51.062;6.920;2024-02-28T11:58:52;59.90;;;30.17;;
4122;SDS011;2075;51.062;6.920;2024-02-28T12:01:40;71.17;;;32.47;;
4122;SDS011;2075;51.062;6.920;2024-02-28T12:04:28;72.00;;;31.50;;
4122;SDS011;2075;51.062;6.920;2024-02-28T12:07:14;69.03;;;32.63;;
4122;SDS011;2075;51.062;6.920;2024-02-28T12:10:01;72.13;;;32.70;;
4122;SDS011;2075;51.062;6.920;2024-02-28T12:12:47;64.70;;;29.23;;
4122;SDS011;2075;51.062;6.920;2024-02-28T12:15:34;74.03;;;33.37;;
4122;SDS011;2075;51.062;6.920;2024-02-28T12:18:20;62.50;;;29.13;;
4122;SDS011;2075;51.062;6.920;2024-02-28T12:21:06;70.30;;;31.47;;
4122;SDS011;2075;51.062;6.920;2024-02-28T12:23:56;73.40;;;32.80;;
4122;SDS011;2075;51.062;6.920;2024-02-28T12:26:42;67.90;;;30.00;;
4122;SDS011;2075;51.062;6.920;2024-02-28T12:29:28;71.13;;;29.13;;
4122;SDS011;2075;51.062;6.920;2024-02-28T12:32:14;67.60;;;29.97;;
4122;SDS011;2075;51.062;6.920;2024-02-28T12:35:00;68.00;;;30.60;;
4122;SDS011;2075;51.062;6.920;2024-02-28T12:37:48;62.27;;;27.80;;
4122;SDS011;2075;51.062;6.920;2024-02-28T12:40:41;62.30;;;29.10;;
4122;SDS011;2075;51.062;6.920;2024-02-28T12:43:27;66.07;;;30.00;;
4122;SDS011;2075;51.062;6.920;2024-02-28T12:46:14;62.53;;;28.80;;
4122;SDS011;2075;51.062;6.920;2024-02-28T12:49:00;58.60;;;28.87;;
4122;SDS011;2075;51.062;6.920;2024-02-28T12:51:46;63.30;;;28.63;;
4122;SDS011;2075;51.062;6.920;2024-02-28T12:54:33;57.13;;;26.83;;
4122;SDS011;2075;51.062;6.920;2024-02-28T12:57:21;62.07;;;27.10;;
4122;SDS011;2075;51.062;6.920;2024-02-28T13:00:07;56.40;;;26.73;;
4122;SDS011;2075;51.062;6.920;2024-02-28T13:02:53;59.03;;;27.20;;
4122;SDS011;2075;51.062;6.920;2024-02-28T13:05:40;53.63;;;26.07;;
4122;SDS011;2075;51.062;6.920;2024-02-28T13:08:25;51.23;;;25.63;;
4122;SDS011;2075;51.062;6.920;2024-02-28T13:11:11;51.20;;;25.87;;
4122;SDS011;2075;51.062;6.920;2024-02-28T13:13:59;53.00;;;26.67;;
4122;SDS011;2075;51.062;6.920;2024-02-28T13:16:44;53.63;;;25.70;;
4122;SDS011;2075;51.062;6.920;2024-02-28T13:19:30;48.10;;;24.50;;
4122;SDS011;2075;51.062;6.920;2024-02-28T13:22:16;50.20;;;25.53;;
4122;SDS011;2075;51.062;6.920;2024-02-28T13:25:02;47.00;;;25.30;;
4122;SDS011;2075;51.062;6.920;2024-02-28T13:27:52;50.63;;;25.00;;
4122;SDS011;2075;51.062;6.920;2024-02-28T13:30:39;52.43;;;24.80;;
4122;SDS011;2075;51.062;6.920;2024-02-28T13:33:25;47.53;;;24.30;;
4122;SDS011;2075;51.062;6.920;2024-02-28T13:36:11;47.43;;;24.90;;
4122;SDS011;2075;51.062;6.920;2024-02-28T13:38:57;44.13;;;22.27;;
4122;SDS011;2075;51.062;6.920;2024-02-28T13:41:42;45.00;;;21.63;;
4122;SDS011;2075;51.062;6.920;2024-02-28T13:44:28;49.67;;;22.43;;
4122;SDS011;2075;51.062;6.920;2024-02-28T13:47:17;41.00;;;21.87;;
4122;SDS011;2075;51.062;6.920;2024-02-28T13:50:03;41.53;;;21.90;;
4122;SDS011;2075;51.062;6.920;2024-02-28T13:52:49;47.10;;;22.57;;
4122;SDS011;2075;51.062;6.920;2024-02-28T13:55:35;42.60;;;21.20;;
4122;SDS011;2075;51.062;6.920;2024-02-28T13:58:22;47.67;;;21.80;;
4122;SDS011;2075;51.062;6.920;2024-02-28T14:01:08;48.90;;;21.20;;
4122;SDS011;2075;51.062;6.920;2024-02-28T14:03:56;44.13;;;22.47;;
4122;SDS011;2075;51.062;6.920;2024-02-28T14:06:42;44.20;;;21.50;;
4122;SDS011;2075;51.062;6.920;2024-02-28T14:09:29;44.17;;;22.60;;
4122;SDS011;2075;51.062;6.920;2024-02-28T14:12:15;41.03;;;20.63;;
4122;SDS011;2075;51.062;6.920;2024-02-28T14:15:01;41.70;;;21.20;;
4122;SDS011;2075;51.062;6.920;2024-02-28T14:17:49;42.03;;;20.30;;
4122;SDS011;2075;51.062;6.920;2024-02-28T14:20:36;47.43;;;21.67;;
4122;SDS011;2075;51.062;6.920;2024-02-28T14:23:26;37.37;;;20.60;;
4122;SDS011;2075;51.062;6.920;2024-02-28T14:26:12;42.90;;;21.10;;
4122;SDS011;2075;51.062;6.920;2024-02-28T14:28:58;36.33;;;17.70;;
4122;SDS011;2075;51.062;6.920;2024-02-28T14:31:44;41.20;;;19.47;;
4122;SDS011;2075;51.062;6.920;2024-02-28T14:34:30;42.57;;;19.20;;
4122;SDS011;2075;51.062;6.920;2024-02-28T14:37:17;40.77;;;18.90;;
4122;SDS011;2075;51.062;6.920;2024-02-28T14:40:04;37.10;;;18.80;;
4122;SDS011;2075;51.062;6.920;2024-02-28T14:42:53;34.97;;;18.50;;
4122;SDS011;2075;51.062;6.920;2024-02-28T14:45:39;37.50;;;20.50;;
4122;SDS011;2075;51.062;6.920;2024-02-28T14:48:25;40.73;;;20.07;;
4122;SDS011;2075;51.062;6.920;2024-02-28T14:51:11;41.50;;;18.93;;
4122;SDS011;2075;51.062;6.920;2024-02-28T14:53:59;46.50;;;17.93;;
4122;SDS011;2075;51.062;6.920;2024-02-28T14:56:45;35.00;;;17.70;;
4122;SDS011;2075;51.062;6.920;2024-02-28T14:59:35;37.53;;;17.87;;
4122;SDS011;2075;51.062;6.920;2024-02-28T15:02:20;39.20;;;18.07;;
4122;SDS011;2075;51.062;6.920;2024-02-28T15:05:07;33.60;;;17.33;;
4122;SDS011;2075;51.062;6.920;2024-02-28T15:07:53;30.40;;;16.23;;
4122;SDS011;2075;51.062;6.920;2024-02-28T15:10:41;37.10;;;17.97;;
4122;SDS011;2075;51.062;6.920;2024-02-28T15:13:27;29.77;;;16.43;;
4122;SDS011;2075;51.062;6.920;2024-02-28T15:16:14;34.97;;;17.07;;
4122;SDS011;2075;51.062;6.920;2024-02-28T15:19:01;33.03;;;16.70;;
4122;SDS011;2075;51.062;6.920;2024-02-28T15:21:46;34.50;;;16.77;;
4122;SDS011;2075;51.062;6.920;2024-02-28T15:24:32;35.53;;;18.63;;
4122;SDS011;2075;51.062;6.920;2024-02-28T15:27:20;30.40;;;15.93;;
4122;SDS011;2075;51.062;6.920;2024-02-28T15:30:06;34.73;;;17.50;;
4122;SDS011;2075;51.062;6.920;2024-02-28T15:32:53;30.10;;;16.23;;
4122;SDS011;2075;51.062;6.920;2024-02-28T15:35:39;31.93;;;15.23;;
4122;SDS011;2075;51.062;6.920;2024-02-28T15:38:25;41.20;;;17.13;;
4122;SDS011;2075;51.062;6.920;2024-02-28T15:41:11;34.23;;;16.63;;
4122;SDS011;2075;51.062;6.920;2024-02-28T15:43:59;32.80;;;17.40;;
4122;SDS011;2075;51.062;6.920;2024-02-28T15:46:44;31.47;;;16.97;;
4122;SDS011;2075;51.062;6.920;2024-02-28T15:49:30;33.60;;;17.20;;
4122;SDS011;2075;51.062;6.920;2024-02-28T15:52:16;31.77;;;15.40;;
4122;SDS011;2075;51.062;6.920;2024-02-28T15:55:03;40.30;;;17.03;;
4122;SDS011;2075;51.062;6.920;2024-02-28T15:57:49;34.73;;;15.93;;
4122;SDS011;2075;51.062;6.920;2024-02-28T16:00:36;28.60;;;14.13;;
4122;SDS011;2075;51.062;6.920;2024-02-28T16:03:22;26.83;;;15.20;;
4122;SDS011;2075;51.062;6.920;2024-02-28T16:06:07;29.17;;;14.50;;
4122;SDS011;2075;51.062;6.920;2024-02-28T16:08:53;31.37;;;14.80;;
4122;SDS011;2075;51.062;6.920;2024-02-28T16:11:40;28.07;;;15.63;;
4122;SDS011;2075;51.062;6.920;2024-02-28T16:14:28;30.70;;;16.50;;
4122;SDS011;2075;51.062;6.920;2024-02-28T16:17:16;28.97;;;15.60;;
4122;SDS011;2075;51.062;6.920;2024-02-28T16:20:02;29.33;;;15.00;;
4122;SDS011;2075;51.062;6.920;2024-02-28T16:22:49;29.57;;;14.73;;
4122;SDS011;2075;51.062;6.920;2024-02-28T16:25:36;33.33;;;16.63;;
4122;SDS011;2075;51.062;6.920;2024-02-28T16:28:22;30.33;;;16.33;;
4122;SDS011;2075;51.062;6.920;2024-02-28T16:31:08;35.73;;;15.47;;
4122;SDS011;2075;51.062;6.920;2024-02-28T16:33:56;30.50;;;14.60;;
4122;SDS011;2075;51.062;6.920;2024-02-28T16:36:41;30.43;;;15.73;;
4122;SDS011;2075;51.062;6.920;2024-02-28T16:39:28;28.17;;;16.40;;
4122;SDS011;2075;51.062;6.920;2024-02-28T16:42:14;31.33;;;15.63;;
4122;SDS011;2075;51.062;6.920;2024-02-28T16:45:00;27.73;;;14.93;;
4122;SDS011;2075;51.062;6.920;2024-02-28T16:47:47;29.83;;;16.30;;
4122;SDS011;2075;51.062;6.920;2024-02-28T16:50:34;32.60;;;16.73;;
4122;SDS011;2075;51.062;6.920;2024-02-28T16:53:23;29.73;;;15.70;;
4122;SDS011;2075;51.062;6.920;2024-02-28T16:56:14;33.20;;;15.57;;